Time;durP1;ratioP1;P1;durP2;ratioP2;P2;SDS_P1;SDS_P2;PMS_P1;PMS_P2;Temp;Humidity;BMP_temperature;BMP_pressure;BME280_temperature;BME280_humidity;BME280_pressure;Samples;Min_cycle;Max_cycle;Signal;HPM_P1;HPM_P2
2021/03/26 00:01:56;;;;;;;;;;;;;;;0.73;38.72;99569.04;1810531;78;20140;-64
2021/03/26 00:04:24;;;;;;;;;;;;;;;0.72;38.51;99572.59;1785224;79;20162;-64
2021/03/26 00:06:51;;;;;;;;;;;;;;;0.72;38.35;99569.98;1776523;79;20154;-64
2021/03/26 00:09:21;;;;;;;;;;;;;;;0.71;38.39;99574.36;1788925;78;20162;-64
2021/03/26 00:11:50;;;;;;;;;;;;;;;0.71;38.25;99578.70;1807528;78;20239;-64
2021/03/26 00:14:19;;;;;;;;;;;;;;;0.71;38.15;99578.27;1807149;78;20208;-64
2021/03/26 00:16:48;;;;;;;;;;;;;;;0.71;38.17;99573.06;1807065;78;20145;-65
2021/03/26 00:19:16;;;;;;;;;;;;;;;0.71;38.17;99574.36;1798221;78;20152;-64
2021/03/26 00:21:44;;;;;;;;;;;;;;;0.71;38.24;99574.80;1804829;78;20264;-64
2021/03/26 00:24:11;;;;;;;;;;;;;;;0.70;38.35;99578.34;1817761;78;20137;-64
2021/03/26 00:26:39;;;;;;;;;;;;;;;0.68;38.35;99577.13;1798228;79;20141;-64
2021/03/26 00:29:11;;;;;;;;;;;;;;;0.69;38.43;99583.16;1810188;78;20118;-64
2021/03/26 00:31:41;;;;;;;;;;;;;;;0.68;38.41;99575.00;1785189;79;20142;-64
2021/03/26 00:34:10;;;;;;;;;;;;;;;0.66;38.43;99576.85;1804375;79;20163;-64
2021/03/26 00:36:38;;;;;;;;;;;;;;;0.64;38.45;99579.53;1816039;78;20141;-64
2021/03/26 00:39:06;;;;;;;;;;;;;;;0.63;38.58;99575.72;1821988;78;20240;-63
2021/03/26 00:41:34;;;;;;;;;;;;;;;0.62;38.63;99584.44;1807182;78;21259;-66
2021/03/26 00:44:04;;;;;;;;;;;;;;;0.61;38.63;99571.06;1802506;78;20156;-63
2021/03/26 00:46:33;;;;;;;;;;;;;;;0.60;38.74;99575.44;1773669;79;20121;-64
2021/03/26 00:49:01;;;;;;;;;;;;;;;0.57;38.83;99573.83;1807020;78;20144;-64
2021/03/26 00:51:28;;;;;;;;;;;;;;;0.60;38.82;99577.17;1807276;78;20393;-66
2021/03/26 00:53:56;;;;;;;;;;;;;;;0.57;38.80;99576.90;1823168;79;20121;-65
2021/03/26 00:56:23;;;;;;;;;;;;;;;0.57;38.89;99579.50;1825096;78;20149;-65
2021/03/26 00:58:52;;;;;;;;;;;;;;;0.56;38.96;99578.67;1816005;78;20503;-66
2021/03/26 01:01:20;;;;;;;;;;;;;;;0.55;38.96;99584.79;1816105;78;20149;-66
2021/03/26 01:03:50;;;;;;;;;;;;;;;0.53;38.97;99580.61;1801874;78;20121;-66
2021/03/26 01:06:20;;;;;;;;;;;;;;;0.53;39.05;99583.21;1798096;78;20125;-66
2021/03/26 01:08:49;;;;;;;;;;;;;;;0.52;39.05;99588.03;1809578;78;20228;-66
2021/03/26 01:11:29;;;;;;;;;;;;;;;0.49;39.15;99579.94;1825136;78;20121;-66
2021/03/26 01:13:58;;;;;;;;;;;;;;;0.50;39.32;99584.20;1792670;79;20421;-65
2021/03/26 01:16:28;;;;;;;;;;;;;;;0.48;39.32;99583.45;1814293;79;20408;-65
2021/03/26 01:18:57;;;;;;;;;;;;;;;0.46;39.37;99585.30;1799249;79;20133;-65
2021/03/26 01:21:27;;;;;;;;;;;;;;;0.47;39.42;99590.91;1807461;78;20153;-65
2021/03/26 01:23:54;;;;;;;;;;;;;;;0.47;39.49;99585.70;1775597;78;20245;-65
2021/03/26 01:26:23;;;;;;;;;;;;;;;0.45;39.59;99587.98;1803884;78;20236;-66
2021/03/26 01:28:58;;;;;;;;;;;;;;;0.45;39.63;99582.34;1787424;78;20488;-65
2021/03/26 01:31:39;;;;;;;;;;;;;;;0.44;39.70;99586.33;1816777;78;20149;-65
2021/03/26 01:34:09;;;;;;;;;;;;;;;0.42;39.83;99593.38;1811478;78;20137;-65
2021/03/26 01:36:39;;;;;;;;;;;;;;;0.41;39.89;99590.39;1824750;79;20488;-65
2021/03/26 01:39:08;;;;;;;;;;;;;;;0.39;39.97;99599.58;1811639;78;20452;-64
2021/03/26 01:41:40;;;;;;;;;;;;;;;0.37;40.05;99600.99;1815913;78;20177;-64
2021/03/26 01:44:12;;;;;;;;;;;;;;;0.35;40.04;99597.61;1824624;79;20157;-64
2021/03/26 01:46:42;;;;;;;;;;;;;;;0.34;40.04;99600.32;1816039;78;20149;-64
2021/03/26 01:49:11;;;;;;;;;;;;;;;0.33;39.99;99602.06;1816076;78;20136;-64
2021/03/26 01:51:44;;;;;;;;;;;;;;;0.32;40.03;99600.40;1825119;79;20149;-64
2021/03/26 01:54:16;;;;;;;;;;;;;;;0.30;40.04;99598.78;1773938;78;20480;-64
2021/03/26 01:56:45;;;;;;;;;;;;;;;0.30;40.17;99598.78;1810261;78;20161;-64
2021/03/26 01:59:33;;;;;;;;;;;;;;;0.28;40.17;99603.23;1824676;79;20136;-64
2021/03/26 02:02:05;;;;;;;;;;;;;;;0.25;40.08;99601.66;1824832;78;20242;-64
2021/03/26 02:04:36;;;;;;;;;;;;;;;0.26;40.13;99603.78;1818868;78;20180;-64
2021/03/26 02:07:06;;;;;;;;;;;;;;;0.24;40.29;99605.16;1794051;78;20168;-64
2021/03/26 02:09:39;;;;;;;;;;;;;;;0.23;40.33;99602.67;1802484;78;20141;-65
2021/03/26 02:12:17;;;;;;;;;;;;;;;0.22;40.36;99604.41;1776095;79;20234;-63
2021/03/26 02:14:48;;;;;;;;;;;;;;;0.20;40.39;99604.96;1822171;79;20148;-64
2021/03/26 02:17:20;;;;;;;;;;;;;;;0.21;40.34;99604.49;1791921;79;20240;-64
2021/03/26 02:19:55;;;;;;;;;;;;;;;0.19;40.42;99606.73;1823973;79;20125;-64
2021/03/26 02:22:25;;;;;;;;;;;;;;;0.19;40.46;99609.80;1813766;78;20144;-64
2021/03/26 02:24:53;;;;;;;;;;;;;;;0.19;40.33;99605.91;1795794;79;20177;-66
2021/03/26 02:27:28;;;;;;;;;;;;;;;0.18;40.38;99605.05;1807714;78;20141;-63
2021/03/26 02:29:57;;;;;;;;;;;;;;;0.17;40.38;99605.98;1806905;78;20236;-64
2021/03/26 02:32:32;;;;;;;;;;;;;;;0.18;40.37;99605.05;1796616;78;20445;-66
2021/03/26 02:35:15;;;;;;;;;;;;;;;0.18;40.41;99604.21;1819117;78;20228;-64
2021/03/26 02:37:54;;;;;;;;;;;;;;;0.18;40.46;99603.74;1816025;78;20176;-65
2021/03/26 02:40:28;;;;;;;;;;;;;;;0.17;40.46;99602.55;1824138;78;20137;-65
2021/03/26 02:43:09;;;;;;;;;;;;;;;0.16;40.50;99606.89;1813987;78;20137;-65
2021/03/26 02:45:42;;;;;;;;;;;;;;;0.17;40.59;99608.58;1805219;79;20129;-64
2021/03/26 02:48:15;;;;;;;;;;;;;;;0.16;40.46;99605.59;1816222;78;20137;-64
2021/03/26 02:50:54;;;;;;;;;;;;;;;0.16;40.48;99601.69;1811461;78;20188;-64
2021/03/26 02:53:36;;;;;;;;;;;;;;;0.17;40.52;99605.98;1779051;78;20165;-65
2021/03/26 02:56:08;;;;;;;;;;;;;;;0.18;40.63;99603.74;1803642;78;20157;-65
2021/03/26 02:58:42;;;;;;;;;;;;;;;0.18;40.78;99612.02;1800270;78;20173;-65
2021/03/26 03:01:21;;;;;;;;;;;;;;;0.18;40.90;99605.52;1801054;79;20149;-65
2021/03/26 03:03:50;;;;;;;;;;;;;;;0.18;40.86;99609.41;1789053;78;20137;-65
2021/03/26 03:06:27;;;;;;;;;;;;;;;0.17;40.85;99615.09;1780756;79;20161;-64
2021/03/26 03:09:15;;;;;;;;;;;;;;;0.18;40.91;99616.75;1808564;78;20129;-64
2021/03/26 03:11:58;;;;;;;;;;;;;;;0.18;40.96;99616.75;1797429;78;20136;-63
2021/03/26 03:14:33;;;;;;;;;;;;;;;0.21;40.89;99618.80;1820645;78;20212;-65
2021/03/26 03:17:24;;;;;;;;;;;;;;;0.20;40.79;99614.06;1799072;79;20125;-65
2021/03/26 03:19:56;;;;;;;;;;;;;;;0.20;40.78;99621.88;1814170;78;20251;-65
2021/03/26 03:22:35;;;;;;;;;;;;;;;0.21;40.84;99624.00;1780337;79;20150;-65
2021/03/26 03:25:14;;;;;;;;;;;;;;;0.21;41.06;99626.60;1811279;78;21217;-65
2021/03/26 03:27:52;;;;;;;;;;;;;;;0.21;41.39;99642.20;1779773;79;20231;-64
2021/03/26 03:30:37;;;;;;;;;;;;;;;0.22;41.47;99636.93;1805145;78;20244;-64
2021/03/26 03:33:12;;;;;;;;;;;;;;;0.20;41.46;99642.68;1795587;78;20243;-65
2021/03/26 03:36:02;;;;;;;;;;;;;;;0.18;41.52;99642.75;1824285;78;20228;-64
2021/03/26 03:38:57;;;;;;;;;;;;;;;0.18;41.53;99653.16;1821635;78;20156;-64
2021/03/26 03:41:47;;;;;;;;;;;;;;;0.15;41.62;99648.14;1821024;78;20157;-64
2021/03/26 03:44:18;;;;;;;;;;;;;;;0.15;41.95;99654.64;1794343;78;20156;-64
2021/03/26 03:47:11;;;;;;;;;;;;;;;0.13;42.22;99653.03;1803816;79;20143;-65
2021/03/26 03:49:56;;;;;;;;;;;;;;;0.11;42.38;99653.14;1819319;78;20196;-65
2021/03/26 03:52:40;;;;;;;;;;;;;;;0.10;42.29;99655.34;1783425;79;20515;-65
2021/03/26 03:55:15;;;;;;;;;;;;;;;0.08;42.33;99653.29;1793760;78;20228;-64
2021/03/26 03:58:03;;;;;;;;;;;;;;;0.09;42.29;99657.55;1814087;78;20141;-64
2021/03/26 04:00:36;;;;;;;;;;;;;;;0.07;42.41;99654.20;1738332;79;20257;-65
2021/03/26 04:03:12;;;;;;;;;;;;;;;0.07;42.63;99652.06;1807908;78;20404;-65
2021/03/26 04:05:54;;;;;;;;;;;;;;;0.07;42.58;99649.00;1788740;79;20220;-65
2021/03/26 04:08:29;;;;;;;;;;;;;;;0.07;42.75;99650.30;1793784;79;20141;-65
2021/03/26 04:11:25;;;;;;;;;;;;;;;0.10;42.81;99653.21;1825030;79;20562;-65
2021/03/26 04:14:07;;;;;;;;;;;;;;;0.11;42.94;99654.44;1767290;78;20427;-65
2021/03/26 04:16:36;;;;;;;;;;;;;;;0.14;43.18;99650.82;1809720;78;20400;-64
2021/03/26 04:19:13;;;;;;;;;;;;;;;0.18;43.24;99648.42;1808710;78;20136;-65
2021/03/26 04:22:22;;;;;;;;;;;;;;;0.25;43.22;99654.15;1934695;74;20243;-64
2021/03/26 04:25:10;;;;;;;;;;;;;;;0.25;43.33;99652.85;1856124;75;20165;-64
2021/03/26 04:27:43;;;;;;;;;;;;;;;0.30;43.52;99662.08;1902015;75;20388;-64
2021/03/26 04:30:29;;;;;;;;;;;;;;;0.35;43.53;99661.81;1885342;75;20404;-64
2021/03/26 04:32:59;;;;;;;;;;;;;;;0.43;43.59;99658.35;1896293;75;20155;-64
2021/03/26 04:35:27;;;;;;;;;;;;;;;0.49;43.68;99658.48;1877312;75;20116;-65
2021/03/26 04:38:07;;;;;;;;;;;;;;;0.56;43.73;99656.75;1804278;77;20136;-65
2021/03/26 04:40:48;;;;;;;;;;;;;;;0.70;43.57;99666.84;1855884;77;20217;-65
2021/03/26 04:43:41;;;;;;;;;;;;;;;0.81;43.46;99666.25;1864876;77;20402;-64
2021/03/26 04:46:23;;;;;;;;;;;;;;;0.96;43.36;99674.02;1840988;77;20122;-65
2021/03/26 04:49:07;;;;;;;;;;;;;;;1.20;43.24;99677.91;1854364;77;20222;-65
2021/03/26 04:51:47;;;;;;;;;;;;;;;1.41;43.10;99678.45;1867183;77;20138;-64
2021/03/26 04:54:32;;;;;;;;;;;;;;;1.64;42.87;99677.91;1823863;77;20422;-66
2021/03/26 04:57:17;;;;;;;;;;;;;;;1.90;42.76;99678.12;1804090;77;20284;-65
2021/03/26 05:00:16;;;;;;;;;;;;;;;2.31;42.31;99680.79;1915591;74;20233;-65
2021/03/26 05:02:56;;;;;;;;;;;;;;;2.56;41.89;99684.95;1871803;75;20132;-65
2021/03/26 05:05:25;;;;;;;;;;;;;;;2.88;41.46;99683.73;1901781;75;20495;-65
2021/03/26 05:08:04;;;;;;;;;;;;;;;3.19;41.00;99684.34;1849650;76;20411;-65
2021/03/26 05:10:34;;;;;;;;;;;;;;;3.47;40.66;99688.58;1902867;75;20214;-65
2021/03/26 05:13:10;;;;;;;;;;;;;;;3.80;40.37;99690.34;1881154;75;20423;-65
2021/03/26 05:15:43;;;;;;;;;;;;;;;4.22;39.94;99690.93;1901216;75;20172;-65
2021/03/26 05:18:23;;;;;;;;;;;;;;;4.75;39.14;99691.98;1896956;75;20144;-65
2021/03/26 05:21:05;;;;;;;;;;;;;;;5.38;38.28;99690.83;1875364;75;20230;-65
2021/03/26 05:23:50;;;;;;;;;;;;;;;6.15;37.18;99695.54;1885084;75;20148;-65
2021/03/26 05:26:29;;;;;;;;;;;;;;;6.94;35.99;99696.72;1892531;75;20128;-65
2021/03/26 05:29:10;;;;;;;;;;;;;;;7.64;34.82;99699.75;1768276;75;20396;-65
2021/03/26 05:31:47;;;;;;;;;;;;;;;8.25;34.01;99692.38;1882695;75;20136;-65
2021/03/26 05:34:23;;;;;;;;;;;;;;;8.83;33.06;99698.33;1886672;75;20139;-64
2021/03/26 05:37:04;;;;;;;;;;;;;;;9.46;32.06;99700.58;1861071;75;20229;-65
2021/03/26 05:39:44;;;;;;;;;;;;;;;9.92;31.48;99702.08;1845401;77;20186;-65
2021/03/26 05:42:47;;;;;;;;;;;;;;;10.57;30.77;99699.98;1816732;77;20193;-65
2021/03/26 05:45:44;;;;;;;;;;;;;;;11.18;30.09;99704.56;1852109;77;20237;-65
2021/03/26 05:48:43;;;;;;;;;;;;;;;11.92;29.12;99700.38;1853618;77;20233;-65
2021/03/26 05:51:26;;;;;;;;;;;;;;;12.61;28.45;99698.05;1799128;77;20246;-65
2021/03/26 05:54:16;;;;;;;;;;;;;;;13.27;27.42;99706.14;1849100;77;20146;-65
2021/03/26 05:57:37;;;;;;;;;;;;;;;13.98;26.69;99707.80;1906091;74;20236;-66
2021/03/26 06:00:26;;;;;;;;;;;;;;;14.48;26.13;99706.64;1816789;77;20137;-67
2021/03/26 06:03:24;;;;;;;;;;;;;;;15.10;25.36;99711.67;1823619;78;20384;-66
2021/03/26 06:06:32;;;;;;;;;;;;;;;15.74;24.46;99707.36;1796852;79;20432;-66
2021/03/26 06:09:36;;;;;;;;;;;;;;;16.48;23.61;99711.40;1803564;78;20121;-66
2021/03/26 06:12:40;;;;;;;;;;;;;;;17.19;22.75;99713.99;1802472;78;20145;-68
2021/03/26 06:15:56;;;;;;;;;;;;;;;17.91;21.98;99714.31;1830930;78;20155;-66
2021/03/26 06:18:35;;;;;;;;;;;;;;;18.46;21.16;99718.95;1793238;77;20493;-67
2021/03/26 06:21:32;;;;;;;;;;;;;;;18.95;20.65;99715.28;1809939;78;20142;-67
2021/03/26 06:24:33;;;;;;;;;;;;;;;19.34;19.83;99720.39;1795371;78;20129;-67
2021/03/26 06:27:40;;;;;;;;;;;;;;;19.31;20.00;99713.59;1807987;78;20238;-67
2021/03/26 06:30:22;;;;;;;;;;;;;;;19.64;19.71;99711.95;1781924;78;20145;-67
2021/03/26 06:33:24;;;;;;;;;;;;;;;20.17;19.23;99716.78;1821719;78;20126;-67
2021/03/26 06:36:13;;;;;;;;;;;;;;;20.67;18.86;99712.75;1791294;78;20231;-66
2021/03/26 06:39:15;;;;;;;;;;;;;;;21.34;17.70;99709.16;1810281;78;20512;-67
2021/03/26 06:41:57;;;;;;;;;;;;;;;21.49;17.63;99713.73;1798808;78;20144;-65
2021/03/26 06:44:51;;;;;;;;;;;;;;;21.71;17.50;99708.80;1770283;80;20135;-66
2021/03/26 06:47:46;;;;;;;;;;;;;;;22.05;17.21;99709.30;1752313;80;20217;-69
2021/03/26 06:50:33;;;;;;;;;;;;;;;22.57;16.68;99710.83;1739836;81;20290;-67
2021/03/26 06:53:23;;;;;;;;;;;;;;;22.73;16.16;99709.41;1763285;80;20124;-67
2021/03/26 06:56:12;;;;;;;;;;;;;;;22.60;16.29;99711.73;1737887;80;20226;-67
2021/03/26 06:58:43;;;;;;;;;;;;;;;22.93;16.14;99718.55;1777309;80;20190;-69
2021/03/26 07:01:35;;;;;;;;;;;;;;;23.50;15.61;99715.48;1743271;81;20215;-68
2021/03/26 07:04:29;;;;;;;;;;;;;;;24.00;15.45;99716.43;1804014;78;20124;-70
2021/03/26 07:07:20;;;;;;;;;;;;;;;24.53;14.90;99718.13;1786196;80;20167;-69
2021/03/26 07:09:56;;;;;;;;;;;;;;;24.92;14.36;99724.30;1778181;80;20166;-70
2021/03/26 07:13:05;;;;;;;;;;;;;;;25.03;13.93;99726.68;1764330;80;20127;-69
2021/03/26 07:15:43;;;;;;;;;;;;;;;25.04;13.89;99731.01;1800121;79;20206;-71
2021/03/26 07:18:48;;;;;;;;;;;;;;;25.46;13.73;99719.89;1776511;80;20143;-69
2021/03/26 07:21:41;;;;;;;;;;;;;;;25.69;13.58;99719.71;1768020;80;20438;-68
2021/03/26 07:24:34;;;;;;;;;;;;;;;25.99;13.08;99719.92;1773783;80;20136;-68
2021/03/26 07:27:26;;;;;;;;;;;;;;;26.08;13.00;99714.91;1773969;80;20151;-70
2021/03/26 07:30:32;;;;;;;;;;;;;;;26.26;12.79;99718.69;1775422;80;20226;-70
2021/03/26 07:33:14;;;;;;;;;;;;;;;26.66;12.77;99724.91;1758037;80;20447;-69
2021/03/26 07:35:49;;;;;;;;;;;;;;;27.06;12.50;99725.87;1767988;80;20123;-70
2021/03/26 07:38:46;;;;;;;;;;;;;;;27.18;12.06;99733.06;1782131;80;20138;-69
2021/03/26 07:41:53;;;;;;;;;;;;;;;27.37;12.04;99732.19;1779687;80;20229;-70
2021/03/26 07:44:42;;;;;;;;;;;;;;;27.10;12.07;99734.31;1792233;79;20141;-69
2021/03/26 07:47:30;;;;;;;;;;;;;;;27.27;12.07;99739.67;1763705;80;20171;-67
2021/03/26 07:50:10;;;;;;;;;;;;;;;27.43;11.93;99734.67;1781950;79;20149;-69
2021/03/26 07:53:02;;;;;;;;;;;;;;;27.81;11.63;99733.33;1802319;78;20176;-70
2021/03/26 07:55:51;;;;;;;;;;;;;;;28.12;11.24;99737.66;1749109;81;20273;-72
2021/03/26 07:58:38;;;;;;;;;;;;;;;28.35;11.01;99740.49;1775811;80;20159;-69
2021/03/26 08:01:27;;;;;;;;;;;;;;;28.64;10.72;99745.83;1788611;80;20494;-69
2021/03/26 08:04:08;;;;;;;;;;;;;;;28.75;10.89;99742.61;1776103;80;20131;-68
2021/03/26 08:06:51;;;;;;;;;;;;;;;28.76;10.86;99750.22;1773139;80;20170;-68
2021/03/26 08:09:42;;;;;;;;;;;;;;;28.82;10.72;99746.42;1785363;80;20127;-69
2021/03/26 08:12:48;;;;;;;;;;;;;;;28.51;11.06;99747.65;1756789;80;20219;-67
2021/03/26 08:15:41;;;;;;;;;;;;;;;28.49;11.32;99750.33;1748913;81;20169;-70
2021/03/26 08:18:28;;;;;;;;;;;;;;;28.76;11.53;99756.47;1778604;80;20402;-68
2021/03/26 08:21:00;;;;;;;;;;;;;;;29.06;11.75;99750.84;1784300;80;20191;-70
2021/03/26 08:23:43;;;;;;;;;;;;;;;29.32;11.48;99753.09;1756938;80;20160;-67
2021/03/26 08:26:23;;;;;;;;;;;;;;;29.50;11.47;99754.48;1784984;80;20399;-69
2021/03/26 08:29:17;;;;;;;;;;;;;;;29.71;11.38;99755.84;1762512;80;20127;-69
2021/03/26 08:32:05;;;;;;;;;;;;;;;29.70;11.16;99756.41;1785021;80;20298;-69
2021/03/26 08:34:56;;;;;;;;;;;;;;;29.55;11.43;99757.22;1779824;80;20143;-67
2021/03/26 08:37:49;;;;;;;;;;;;;;;29.39;11.36;99758.30;1783067;80;20242;-68
2021/03/26 08:40:26;;;;;;;;;;;;;;;29.46;11.42;99754.76;1763988;80;20167;-69
2021/03/26 08:42:54;;;;;;;;;;;;;;;29.52;11.62;99757.75;1769243;80;20131;-68
2021/03/26 08:45:35;;;;;;;;;;;;;;;29.79;11.43;99756.13;1772833;81;20534;-69
2021/03/26 08:48:26;;;;;;;;;;;;;;;30.06;11.33;99756.39;1746889;81;20153;-67
2021/03/26 08:51:01;;;;;;;;;;;;;;;30.28;11.19;99757.44;1749671;81;20133;-67
2021/03/26 08:54:01;;;;;;;;;;;;;;;30.32;11.14;99750.84;1749737;81;20326;-65
2021/03/26 08:56:44;;;;;;;;;;;;;;;30.40;11.06;99754.97;1754445;81;20149;-68
2021/03/26 08:59:32;;;;;;;;;;;;;;;30.45;11.00;99757.14;1783737;79;20147;-65
2021/03/26 09:02:18;;;;;;;;;;;;;;;30.13;11.12;99758.81;1788593;79;20150;-70
2021/03/26 09:05:15;;;;;;;;;;;;;;;29.93;11.19;99755.05;1732828;79;20243;-69
2021/03/26 09:07:51;;;;;;;;;;;;;;;29.85;11.19;99761.58;1790524;79;20155;-69
2021/03/26 09:10:33;;;;;;;;;;;;;;;29.84;11.53;99763.50;1792781;79;20143;-70
2021/03/26 09:13:28;;;;;;;;;;;;;;;29.66;11.38;99765.37;1779131;79;20258;-69
2021/03/26 09:16:02;;;;;;;;;;;;;;;29.75;11.41;99766.50;1752242;80;20215;-69
2021/03/26 09:19:02;;;;;;;;;;;;;;;29.98;11.21;99759.13;1800658;79;20230;-68
2021/03/26 09:21:46;;;;;;;;;;;;;;;30.21;11.12;99766.45;1787362;79;20127;-68
2021/03/26 09:24:29;;;;;;;;;;;;;;;30.30;11.10;99763.95;1786905;79;20413;-68
2021/03/26 09:27:18;;;;;;;;;;;;;;;30.21;11.00;99769.17;1784923;79;20242;-68
2021/03/26 09:30:01;;;;;;;;;;;;;;;30.12;11.02;99758.00;1798193;79;20142;-66
2021/03/26 09:32:33;;;;;;;;;;;;;;;29.93;11.34;99756.41;1775763;79;20476;-68
2021/03/26 09:35:23;;;;;;;;;;;;;;;29.98;11.21;99762.38;1788719;79;20426;-68
2021/03/26 09:37:58;;;;;;;;;;;;;;;29.65;11.19;99766.48;1797882;78;20229;-67
2021/03/26 09:40:46;;;;;;;;;;;;;;;29.51;11.46;99768.91;1822092;78;20157;-68
2021/03/26 09:43:31;;;;;;;;;;;;;;;29.66;11.30;99779.00;1804201;78;20145;-69
2021/03/26 09:46:02;;;;;;;;;;;;;;;29.91;11.19;99774.13;1814245;78;20156;-70
2021/03/26 09:48:50;;;;;;;;;;;;;;;30.22;11.14;99767.25;1786049;79;20147;-69
2021/03/26 09:51:50;;;;;;;;;;;;;;;30.23;10.81;99766.98;1917863;74;20311;-69
2021/03/26 09:54:38;;;;;;;;;;;;;;;30.18;10.74;99775.17;1869573;75;20128;-71
2021/03/26 09:57:19;;;;;;;;;;;;;;;30.26;10.67;99773.78;1891082;75;20167;-68
2021/03/26 09:59:56;;;;;;;;;;;;;;;30.26;10.76;99773.78;1896567;75;20156;-69
2021/03/26 10:02:36;;;;;;;;;;;;;;;30.03;10.36;99776.56;1892377;75;20467;-69
2021/03/26 10:05:20;;;;;;;;;;;;;;;29.82;10.33;99779.31;1892164;75;20136;-68
2021/03/26 10:07:54;;;;;;;;;;;;;;;29.82;10.12;99777.95;1895063;75;20121;-69
2021/03/26 10:13:07;;;;;;;;;;;;;;;29.74;10.58;99786.64;1861666;77;20146;-68
2021/03/26 10:15:42;;;;;;;;;;;;;;;29.78;10.48;99781.76;1849717;75;20410;-67
2021/03/26 10:18:25;;;;;;;;;;;;;;;30.00;10.12;99770.57;1866725;77;20169;-68
2021/03/26 10:21:03;;;;;;;;;;;;;;;30.14;10.01;99772.17;1854927;77;20225;-67
2021/03/26 10:23:51;;;;;;;;;;;;;;;30.15;9.83;99771.62;1868375;76;20404;-68
2021/03/26 10:26:27;;;;;;;;;;;;;;;29.84;10.15;99774.40;1868309;76;20152;-70
2021/03/26 10:28:59;;;;;;;;;;;;;;;29.65;10.31;99775.47;1845618;76;20263;-68
2021/03/26 10:31:32;;;;;;;;;;;;;;;29.39;10.38;99770.55;1868186;76;20203;-68
2021/03/26 10:34:02;;;;;;;;;;;;;;;28.94;10.94;99777.50;1868194;76;20216;-67
2021/03/26 10:36:51;;;;;;;;;;;;;;;28.55;10.85;99775.16;1853287;76;20139;-66
2021/03/26 10:39:32;;;;;;;;;;;;;;;28.33;10.90;99765.22;1834742;77;20142;-69
2021/03/26 10:42:24;;;;;;;;;;;;;;;27.95;10.54;99753.58;1785885;78;20230;-68
2021/03/26 10:45:20;;;;;;;;;;;;;;;27.27;10.95;99764.94;1836605;77;20230;-67
2021/03/26 10:48:08;;;;;;;;;;;;;;;26.70;11.29;99761.28;1826316;78;20152;-68
2021/03/26 10:50:41;;;;;;;;;;;;;;;26.22;11.60;99757.36;1833570;78;20143;-71
2021/03/26 10:53:13;;;;;;;;;;;;;;;25.80;11.62;99759.16;1745876;80;20142;-67
2021/03/26 10:55:57;;;;;;;;;;;;;;;25.33;11.84;99768.38;1722390;82;20205;-70
2021/03/26 10:58:34;;;;;;;;;;;;;;;24.99;12.88;99764.20;1747034;79;20185;-69
2021/03/26 11:01:14;;;;;;;;;;;;;;;24.76;12.75;99767.78;1724809;81;20413;-68
2021/03/26 11:03:51;;;;;;;;;;;;;;;24.51;13.08;99771.58;1733335;82;20291;-67
2021/03/26 11:06:39;;;;;;;;;;;;;;;24.05;13.67;99771.89;1731637;82;20219;-69
2021/03/26 11:09:20;;;;;;;;;;;;;;;23.63;13.60;99764.66;1736136;81;20438;-68
2021/03/26 11:12:01;;;;;;;;;;;;;;;23.32;14.13;99763.58;1744125;81;20137;-68
2021/03/26 11:14:38;;;;;;;;;;;;;;;23.00;14.19;99763.24;1752655;81;20217;-70
2021/03/26 11:17:18;;;;;;;;;;;;;;;22.75;14.75;99757.16;1708819;82;20756;-69
2021/03/26 11:20:06;;;;;;;;;;;;;;;22.47;15.06;99751.78;1703823;83;20202;-71
2021/03/26 11:22:36;;;;;;;;;;;;;;;22.26;15.10;99745.78;1716186;82;20427;-70
2021/03/26 11:25:09;;;;;;;;;;;;;;;21.98;15.77;99747.58;1703437;83;20270;-71
2021/03/26 11:27:45;;;;;;;;;;;;;;;21.78;16.27;99756.34;1717461;82;20251;-71
2021/03/26 11:30:20;;;;;;;;;;;;;;;21.51;16.21;99753.34;1721246;81;20286;-70
2021/03/26 11:32:50;;;;;;;;;;;;;;;21.33;16.91;99749.19;1737490;79;20142;-67
2021/03/26 11:35:19;;;;;;;;;;;;;;;21.10;16.98;99753.25;1774415;80;20229;-70
2021/03/26 11:37:58;;;;;;;;;;;;;;;20.89;17.46;99748.17;1732754;81;20234;-70
2021/03/26 11:40:37;;;;;;;;;;;;;;;20.77;17.59;99758.78;1725564;82;20180;-67
2021/03/26 11:43:11;;;;;;;;;;;;;;;20.67;17.91;99755.73;1717021;82;20453;-69
2021/03/26 11:45:57;;;;;;;;;;;;;;;20.54;17.86;99752.54;1730222;81;20432;-68
2021/03/26 11:48:49;;;;;;;;;;;;;;;20.39;18.40;99746.56;1738227;82;20162;-68
2021/03/26 11:51:33;;;;;;;;;;;;;;;20.07;18.59;99741.05;1741032;81;20205;-67
2021/03/26 11:54:33;;;;;;;;;;;;;;;19.83;18.77;99744.70;1716702;82;20530;-68
2021/03/26 11:57:17;;;;;;;;;;;;;;;19.79;18.91;99743.47;1725716;82;20187;-67
2021/03/26 11:59:53;;;;;;;;;;;;;;;19.60;19.27;99741.03;1741608;82;20173;-68
2021/03/26 12:02:30;;;;;;;;;;;;;;;19.46;19.62;99747.44;1709786;81;20148;-68
2021/03/26 12:05:08;;;;;;;;;;;;;;;19.32;19.89;99745.23;1727678;82;20226;-68
2021/03/26 12:07:46;;;;;;;;;;;;;;;19.17;20.12;99739.55;1738122;81;20148;-68
2021/03/26 12:10:26;;;;;;;;;;;;;;;19.07;20.14;99738.28;1727427;82;20160;-70
2021/03/26 12:13:30;;;;;;;;;;;;;;;19.04;20.21;99736.00;1740315;81;20148;-68
2021/03/26 12:16:19;;;;;;;;;;;;;;;18.94;20.01;99746.58;1692980;84;20166;-69
2021/03/26 12:18:53;;;;;;;;;;;;;;;18.86;20.33;99736.58;1729264;82;20443;-66
2021/03/26 12:21:30;;;;;;;;;;;;;;;18.85;20.45;99737.59;1706595;82;20140;-68
2021/03/26 12:24:06;;;;;;;;;;;;;;;18.75;20.71;99725.89;1735541;82;20148;-68
2021/03/26 12:26:43;;;;;;;;;;;;;;;18.53;20.57;99724.66;1723567;82;20231;-69
2021/03/26 12:29:27;;;;;;;;;;;;;;;18.23;20.76;99717.39;1728511;82;20157;-69
2021/03/26 12:32:04;;;;;;;;;;;;;;;18.03;21.25;99730.16;1724266;80;20132;-66
2021/03/26 12:34:53;;;;;;;;;;;;;;;17.93;21.39;99726.97;1741672;82;20151;-68
2021/03/26 12:37:24;;;;;;;;;;;;;;;17.83;21.69;99726.47;1738124;81;20142;-68
2021/03/26 12:39:58;;;;;;;;;;;;;;;17.74;21.81;99731.64;1674659;84;20134;-67
2021/03/26 12:42:29;;;;;;;;;;;;;;;17.73;21.85;99724.14;1729249;80;20138;-67
2021/03/26 12:45:03;;;;;;;;;;;;;;;17.62;22.04;99728.16;1710867;80;20164;-69
2021/03/26 12:47:32;;;;;;;;;;;;;;;17.53;22.00;99723.14;1737835;82;20162;-68
2021/03/26 12:50:14;;;;;;;;;;;;;;;17.45;22.07;99714.75;1731198;80;20193;-67
2021/03/26 12:52:51;;;;;;;;;;;;;;;17.30;21.76;99713.97;1688252;81;20148;-68
2021/03/26 12:55:32;;;;;;;;;;;;;;;17.18;22.02;99717.15;1733893;82;20142;-69
2021/03/26 12:58:20;;;;;;;;;;;;;;;17.11;22.37;99716.25;1733228;82;20213;-69
2021/03/26 13:00:53;;;;;;;;;;;;;;;17.07;22.58;99718.98;1729130;82;20183;-68
2021/03/26 13:03:34;;;;;;;;;;;;;;;17.01;23.03;99707.73;1730575;82;20415;-67
2021/03/26 13:06:22;;;;;;;;;;;;;;;17.00;23.15;99718.09;1737889;81;20149;-70
2021/03/26 13:08:54;;;;;;;;;;;;;;;16.96;23.20;99716.81;1733807;82;20141;-68
2021/03/26 13:11:27;;;;;;;;;;;;;;;16.81;23.58;99716.30;1733679;82;20151;-67
2021/03/26 13:14:08;;;;;;;;;;;;;;;16.72;23.84;99722.80;1729902;82;20243;-68
2021/03/26 13:16:49;;;;;;;;;;;;;;;16.62;23.96;99716.39;1728564;82;20136;-68
2021/03/26 13:19:23;;;;;;;;;;;;;;;16.54;24.30;99714.34;1732651;82;20147;-66
2021/03/26 13:22:18;;;;;;;;;;;;;;;16.39;24.36;99721.03;1737433;82;20130;-66
2021/03/26 13:24:59;;;;;;;;;;;;;;;16.22;24.63;99723.88;1730639;80;20490;-68
2021/03/26 13:27:50;;;;;;;;;;;;;;;16.02;24.69;99714.25;1740440;80;20666;-67
2021/03/26 13:30:21;;;;;;;;;;;;;;;15.83;25.20;99718.78;1738147;82;20239;-67
2021/03/26 13:33:00;;;;;;;;;;;;;;;15.62;25.51;99717.61;1683970;84;20425;-69
2021/03/26 13:35:51;;;;;;;;;;;;;;;15.48;25.68;99708.55;1694503;83;20194;-66
2021/03/26 13:38:26;;;;;;;;;;;;;;;15.40;25.91;99706.47;1681714;83;20169;-68
2021/03/26 13:40:53;;;;;;;;;;;;;;;15.30;26.34;99704.87;1678896;83;20165;-67
2021/03/26 13:43:27;;;;;;;;;;;;;;;15.16;26.33;99705.63;1669109;84;20135;-66
2021/03/26 13:46:01;;;;;;;;;;;;;;;14.93;26.89;99702.45;1680916;84;20228;-67
2021/03/26 13:48:34;;;;;;;;;;;;;;;14.66;27.16;99704.27;1687842;84;20155;-67
2021/03/26 13:51:14;;;;;;;;;;;;;;;14.50;27.50;99709.14;1686573;83;20506;-67
2021/03/26 13:53:54;;;;;;;;;;;;;;;14.36;27.68;99715.98;1642252;85;20266;-68
2021/03/26 13:56:31;;;;;;;;;;;;;;;14.18;27.97;99706.41;1730819;82;20179;-67
2021/03/26 13:59:17;;;;;;;;;;;;;;;14.03;28.13;99707.27;1733734;82;20431;-68
2021/03/26 14:01:48;;;;;;;;;;;;;;;13.89;28.64;99703.48;1723080;82;20229;-67
2021/03/26 14:04:29;;;;;;;;;;;;;;;13.90;28.51;99707.31;1724513;80;20234;-68